Time;durP1;ratioP1;P1;durP2;ratioP2;P2;SDS_P1;SDS_P2;PMS_P1;PMS_P2;Temp;Humidity;BMP_temperature;BMP_pressure;BME280_temperature;BME280_humidity;BME280_pressure;Samples;Min_cycle;Max_cycle;Signal;HPM_P1;HPM_P2
2021/11/22 00:00:23;;;;;;;8.65;2.53;;;;;;;-0.02;86.57;97813.16;4845724;29;20423;-73
2021/11/22 00:02:50;;;;;;;8.35;2.08;;;;;;;-0.11;85.78;97808.63;4877459;29;20080;-73
2021/11/22 00:05:16;;;;;;;8.05;2.53;;;;;;;-0.29;86.04;97795.94;4860497;29;20060;-74
2021/11/22 00:07:42;;;;;;;7.85;2.40;;;;;;;-0.03;86.36;97824.78;4860586;29;20061;-75
2021/11/22 00:10:09;;;;;;;9.95;2.20;;;;;;;0.08;86.55;97835.31;4867857;29;20064;-74
2021/11/22 00:12:35;;;;;;;6.78;2.22;;;;;;;-0.01;86.41;97826.31;4883140;29;20136;-74
2021/11/22 00:15:03;;;;;;;6.57;2.00;;;;;;;0.06;85.68;97831.94;4882935;29;20052;-73
2021/11/22 00:17:30;;;;;;;7.53;2.50;;;;;;;0.06;86.01;97845.22;4882741;29;20061;-73
2021/11/22 00:19:58;;;;;;;8.73;2.90;;;;;;;-0.04;86.82;97837.22;4849102;29;20061;-75
2021/11/22 00:22:25;;;;;;;9.10;3.22;;;;;;;0.03;87.69;97848.13;4833203;29;20049;-74
2021/11/22 00:24:51;;;;;;;8.02;3.03;;;;;;;0.07;87.92;97860.19;4832753;29;20147;-73
2021/11/22 00:27:17;;;;;;;9.18;3.50;;;;;;;-0.14;87.98;97840.78;4848018;29;20092;-76
2021/11/22 00:29:43;;;;;;;8.75;3.65;;;;;;;0.03;87.14;97864.06;4849439;29;20566;-74
2021/11/22 00:32:21;;;;;;;9.10;3.65;;;;;;;-0.05;87.70;97874.50;4855159;29;20497;-74
2021/11/22 00:35:06;;;;;;;8.48;3.22;;;;;;;-0.01;87.02;97873.28;4882132;29;20052;-73
2021/11/22 00:37:38;;;;;;;10.10;2.90;;;;;;;-0.03;86.41;97884.03;4851848;29;20112;-75
2021/11/22 00:40:06;;;;;;;7.93;2.47;;;;;;;-0.04;85.82;97892.13;4881747;29;20049;-73
2021/11/22 00:42:33;;;;;;;7.63;2.90;;;;;;;-0.06;85.56;97891.44;4882070;29;20061;-74
2021/11/22 00:44:58;;;;;;;7.95;3.17;;;;;;;-0.05;85.69;97890.44;4866563;29;20072;-74
2021/11/22 00:47:24;;;;;;;8.35;2.80;;;;;;;-0.01;85.66;97891.88;4899332;29;20076;-74
2021/11/22 00:49:50;;;;;;;7.88;2.20;;;;;;;-0.23;84.71;97853.00;4851274;29;20123;-74
2021/11/22 00:52:16;;;;;;;10.55;3.85;;;;;;;-0.03;83.70;97877.91;4850798;29;20056;-74
2021/11/22 00:54:42;;;;;;;6.95;2.50;;;;;;;-0.10;82.98;97866.09;4883433;29;20104;-75
2021/11/22 00:57:12;;;;;;;7.72;2.70;;;;;;;0.06;82.36;97890.38;4883526;29;20048;-76
2021/11/22 00:59:38;;;;;;;9.00;2.70;;;;;;;0.06;82.80;97895.69;4867070;29;20143;-74
2021/11/22 01:02:04;;;;;;;8.10;2.30;;;;;;;-0.05;83.61;97890.44;4882227;29;20180;-73
2021/11/22 01:04:30;;;;;;;8.50;2.50;;;;;;;0.04;81.64;97905.63;4881858;29;20205;-74
2021/11/22 01:06:56;;;;;;;6.15;1.85;;;;;;;0.04;81.02;97905.63;4881710;29;20128;-74
2021/11/22 01:09:22;;;;;;;6.90;2.50;;;;;;;0.04;81.72;97908.28;4881538;29;20158;-75
2021/11/22 01:11:48;;;;;;;7.40;2.50;;;;;;;-0.04;81.56;97910.72;4865102;29;20072;-74
2021/11/22 01:14:14;;;;;;;7.00;2.25;;;;;;;-0.13;82.21;97908.84;4834838;29;20642;-74
2021/11/22 01:16:41;;;;;;;9.30;2.67;;;;;;;-0.12;82.46;97907.84;4865353;29;20061;-72
2021/11/22 01:19:07;;;;;;;8.40;2.35;;;;;;;-0.08;81.60;97918.09;4866162;29;20424;-73
2021/11/22 01:21:34;;;;;;;10.23;2.60;;;;;;;-0.17;82.58;97915.38;4898320;29;20399;-72
2021/11/22 01:24:00;;;;;;;7.20;2.60;;;;;;;-0.14;83.61;97925.75;4850354;29;20398;-74
2021/11/22 01:26:26;;;;;;;8.35;2.33;;;;;;;-0.06;83.04;97924.13;4881011;29;20064;-73
2021/11/22 01:28:52;;;;;;;7.18;2.47;;;;;;;-0.17;83.03;97926.00;4865179;29;20063;-73
2021/11/22 01:31:18;;;;;;;7.43;2.47;;;;;;;-0.19;83.00;97933.22;4865562;29;20068;-73
2021/11/22 01:33:44;;;;;;;9.15;2.97;;;;;;;-0.29;83.55;97931.34;4880956;29;20549;-74
2021/11/22 01:36:10;;;;;;;7.63;2.35;;;;;;;-0.27;83.94;97940.00;4879996;29;20057;-73
2021/11/22 01:38:36;;;;;;;7.20;2.03;;;;;;;-0.20;82.57;97936.88;4865355;29;20064;-72
2021/11/22 01:41:04;;;;;;;7.45;2.33;;;;;;;-0.15;82.79;97947.94;4865507;29;20083;-73
2021/11/22 01:43:30;;;;;;;7.93;3.13;;;;;;;-0.38;83.79;97940.06;4881768;29;20060;-73
2021/11/22 01:45:56;;;;;;;6.75;2.10;;;;;;;-0.30;82.86;97948.22;4881904;29;20064;-74
2021/11/22 01:48:25;;;;;;;7.20;2.20;;;;;;;-0.26;83.94;97949.69;4867670;29;20071;-73
2021/11/22 01:50:53;;;;;;;7.38;2.17;;;;;;;-0.23;82.94;97950.41;4867097;29;20399;-73
2021/11/22 01:53:20;;;;;;;8.07;2.45;;;;;;;-0.28;82.94;97956.94;4865882;29;20056;-74
2021/11/22 01:55:47;;;;;;;8.85;2.60;;;;;;;-0.55;82.91;97908.72;4866650;29;20057;-74
2021/11/22 01:58:13;;;;;;;7.07;2.33;;;;;;;-0.21;83.11;97961.75;4846678;29;20150;-75
2021/11/22 02:00:52;;;;;;;7.18;2.50;;;;;;;-0.33;83.84;97942.31;4878623;29;20217;-74
2021/11/22 02:03:19;;;;;;;7.55;2.80;;;;;;;-0.26;84.37;97960.31;4862100;29;20379;-74
2021/11/22 02:05:46;;;;;;;10.23;2.83;;;;;;;-0.53;85.17;97928.03;4861513;29;20057;-74
2021/11/22 02:08:12;;;;;;;8.98;3.28;;;;;;;-0.33;85.34;97959.13;4862128;29;20403;-73
2021/11/22 02:10:38;;;;;;;9.30;3.28;;;;;;;-0.51;84.79;97940.22;4879379;29;20053;-73
2021/11/22 02:13:05;;;;;;;8.32;3.22;;;;;;;-0.47;85.73;97935.50;4879011;29;20075;-73
2021/11/22 02:15:32;;;;;;;8.80;3.28;;;;;;;-0.36;85.59;97959.38;4831785;29;20077;-71
2021/11/22 02:17:58;;;;;;;10.48;3.70;;;;;;;-0.31;85.05;97973.09;4832075;29;20048;-73
2021/11/22 02:20:29;;;;;;;8.45;3.05;;;;;;;-0.40;85.03;97962.38;4862521;29;20052;-74
2021/11/22 02:22:58;;;;;;;9.05;3.70;;;;;;;-0.37;85.61;97978.91;4855514;29;20151;-73
2021/11/22 02:25:26;;;;;;;11.50;3.20;;;;;;;-0.42;86.45;97978.44;4898679;29;20059;-74
2021/11/22 02:27:53;;;;;;;7.85;2.75;;;;;;;-0.38;86.76;97981.69;4851684;29;20056;-73
2021/11/22 02:30:21;;;;;;;8.43;2.75;;;;;;;-0.41;86.61;97979.28;4851110;29;20064;-74
2021/11/22 02:32:48;;;;;;;8.18;2.38;;;;;;;-0.43;87.03;97984.72;4893814;29;20131;-73
2021/11/22 02:35:19;;;;;;;7.18;2.50;;;;;;;-0.78;86.44;97932.66;4863175;29;20087;-74
2021/11/22 02:37:45;;;;;;;8.82;2.88;;;;;;;-0.44;87.18;97980.34;4879627;29;20084;-73
2021/11/22 02:40:12;;;;;;;9.68;3.35;;;;;;;-0.44;86.18;97990.97;4879150;29;20053;-75
2021/11/22 02:42:42;;;;;;;7.35;2.40;;;;;;;-0.41;86.79;97997.84;4861529;29;20057;-76
2021/11/22 02:45:09;;;;;;;7.88;2.65;;;;;;;-0.46;87.11;97995.56;4878741;29;20061;-73
2021/11/22 02:47:35;;;;;;;7.82;2.38;;;;;;;-0.44;88.47;98017.50;4877616;29;20061;-75
2021/11/22 02:50:02;;;;;;;7.65;2.75;;;;;;;-0.54;88.65;98013.94;4845962;29;20057;-74
2021/11/22 02:52:29;;;;;;;7.88;2.40;;;;;;;-0.54;89.21;98008.63;4862730;29;20057;-75
2021/11/22 02:54:55;;;;;;;8.07;2.75;;;;;;;-0.56;88.37;98005.22;4849049;29;20061;-76
2021/11/22 02:57:21;;;;;;;7.57;2.45;;;;;;;-0.57;87.45;98008.88;4832189;29;20547;-74
2021/11/22 02:59:46;;;;;;;8.63;2.50;;;;;;;-0.63;86.86;97988.13;4846889;29;20088;-74
2021/11/22 03:02:13;;;;;;;10.30;2.45;;;;;;;-0.51;87.85;98019.00;4831739;29;20080;-74
2021/11/22 03:04:43;;;;;;;7.68;2.60;;;;;;;-0.57;86.46;98014.19;4877027;29;20093;-76
2021/11/22 03:07:10;;;;;;;7.38;2.17;;;;;;;-0.71;86.12;97993.19;4862189;29;20121;-76
2021/11/22 03:09:37;;;;;;;6.53;1.98;;;;;;;-0.66;85.79;97998.97;4853007;29;20057;-75
2021/11/22 03:12:06;;;;;;;6.60;2.25;;;;;;;-0.50;86.02;98026.00;4861606;29;20068;-76
2021/11/22 03:14:32;;;;;;;9.02;2.15;;;;;;;-0.41;85.14;98024.41;4861451;29;20061;-76
2021/11/22 03:16:59;;;;;;;6.90;1.80;;;;;;;-0.39;84.50;98031.28;4861008;29;20053;-74
2021/11/22 03:19:25;;;;;;;5.93;1.83;;;;;;;-0.54;83.72;98020.09;4885677;29;20129;-74
2021/11/22 03:21:52;;;;;;;7.93;2.30;;;;;;;-0.44;83.48;98022.81;4864616;29;20086;-75
2021/11/22 03:24:18;;;;;;;7.07;2.10;;;;;;;-0.41;83.21;98033.19;4863709;29;20079;-74
2021/11/22 03:26:44;;;;;;;7.13;2.00;;;;;;;-0.37;82.61;98034.63;4879159;29;20057;-73
2021/11/22 03:29:11;;;;;;;6.30;1.75;;;;;;;-0.32;81.77;98048.41;4863767;29;20140;-75
2021/11/22 03:31:37;;;;;;;6.50;1.92;;;;;;;-0.45;81.74;98039.72;4848194;29;20052;-74
2021/11/22 03:34:05;;;;;;;6.00;1.92;;;;;;;-0.41;79.68;98041.16;4895817;29;20426;-76
2021/11/22 03:36:32;;;;;;;6.20;1.90;;;;;;;-0.47;78.12;98028.41;4896750;29;20487;-73
2021/11/22 03:39:00;;;;;;;6.63;1.80;;;;;;;-0.47;77.69;98051.44;4879403;29;20125;-75
2021/11/22 03:41:27;;;;;;;7.68;2.17;;;;;;;-0.38;77.43;98059.50;4896911;29;20056;-74
2021/11/22 03:44:10;;;;;;;5.30;1.50;;;;;;;-0.42;76.46;98028.88;4864287;29;20053;-74
2021/11/22 03:46:37;;;;;;;5.22;1.60;;;;;;;-0.42;74.67;98036.84;4839282;29;20096;-75
2021/11/22 03:49:03;;;;;;;7.07;1.92;;;;;;;-0.40;74.82;98048.19;4848899;29;20147;-75
2021/11/22 03:51:29;;;;;;;5.47;1.63;;;;;;;-0.64;74.39;98005.84;4849441;29;20099;-75
2021/11/22 03:53:55;;;;;;;5.70;1.25;;;;;;;-0.34;73.64;98057.47;4849605;29;20143;-74
2021/11/22 03:56:22;;;;;;;6.40;1.70;;;;;;;-0.39;74.67;98065.78;4880722;29;20060;-73
2021/11/22 03:58:48;;;;;;;6.13;1.80;;;;;;;-0.43;75.14;98064.34;4863978;29;20053;-75
2021/11/22 04:01:14;;;;;;;6.00;1.60;;;;;;;-0.47;73.97;98057.59;4849457;29;20149;-74
2021/11/22 04:03:40;;;;;;;7.18;1.95;;;;;;;-0.66;74.74;98050.22;4834217;29;20123;-77
2021/11/22 04:06:08;;;;;;;7.38;1.60;;;;;;;-0.51;75.75;98086.19;4864666;29;20456;-75
2021/11/22 04:08:34;;;;;;;7.13;2.05;;;;;;;-0.54;75.26;98081.13;4883071;29;20053;-77
2021/11/22 04:11:00;;;;;;;6.60;2.35;;;;;;;-0.49;74.24;98086.06;4849526;29;20478;-74
2021/11/22 04:13:26;;;;;;;6.00;1.88;;;;;;;-0.48;74.31;98082.44;4848867;29;20421;-73
2021/11/22 04:15:52;;;;;;;6.20;1.80;;;;;;;-0.45;74.48;98098.13;4849041;29;20109;-69
2021/11/22 04:18:18;;;;;;;5.10;1.58;;;;;;;-0.41;74.43;98102.22;4880738;29;20056;-71
2021/11/22 04:20:43;;;;;;;5.10;1.52;;;;;;;-0.46;74.62;98096.44;4868247;29;20112;-67
2021/11/22 04:23:10;;;;;;;5.88;1.50;;;;;;;-0.38;74.54;98109.09;4881450;29;20498;-73
2021/11/22 04:25:37;;;;;;;6.80;1.98;;;;;;;-0.49;74.11;98105.47;4866182;29;20148;-68
2021/11/22 04:28:04;;;;;;;6.53;2.13;;;;;;;-0.43;75.51;98133.38;4898971;29;20525;-69
2021/11/22 04:30:33;;;;;;;7.30;2.10;;;;;;;-0.43;76.66;98122.75;4881396;29;20147;-70
2021/11/22 04:32:59;;;;;;;9.60;2.22;;;;;;;-0.38;76.80;98136.50;4866709;29;20066;-69
2021/11/22 04:35:25;;;;;;;7.07;2.25;;;;;;;-0.47;77.17;98131.94;4899232;29;20090;-70
2021/11/22 04:37:51;;;;;;;10.35;3.50;;;;;;;-0.46;77.83;98149.53;4898544;29;20059;-73
2021/11/22 04:40:18;;;;;;;8.02;2.20;;;;;;;-0.42;77.61;98148.31;4898714;29;20052;-73
2021/11/22 04:42:47;;;;;;;14.63;5.57;;;;;;;-0.42;76.99;98150.97;4881865;29;20060;-72
2021/11/22 04:45:15;;;;;;;6.43;1.95;;;;;;;-0.40;77.59;98165.00;4899256;29;20056;-72
2021/11/22 04:47:41;;;;;;;6.95;2.45;;;;;;;-0.51;77.68;98146.41;4865299;29;20424;-72
2021/11/22 04:50:07;;;;;;;9.77;2.53;;;;;;;-0.35;77.81;98168.13;4850522;29;20145;-72
2021/11/22 04:52:34;;;;;;;7.07;2.15;;;;;;;-0.39;78.07;98171.97;4881498;29;20502;-73
2021/11/22 04:55:00;;;;;;;8.65;2.65;;;;;;;-0.38;78.12;98178.97;4897883;29;20438;-74
2021/11/22 04:57:27;;;;;;;7.03;2.03;;;;;;;-0.48;77.18;98172.69;4880518;29;20135;-73
2021/11/22 04:59:54;;;;;;;7.07;1.90;;;;;;;-0.44;78.01;98182.09;4850956;29;20155;-73
2021/11/22 05:02:19;;;;;;;6.90;1.92;;;;;;;-0.39;77.76;98185.25;4881724;29;20454;-73
2021/11/22 05:04:45;;;;;;;7.97;2.60;;;;;;;-0.44;78.59;98198.03;4898966;29;20057;-73
2021/11/22 05:07:15;;;;;;;7.10;2.40;;;;;;;-0.44;77.94;98190.06;4852377;29;20064;-74
2021/11/22 05:09:42;;;;;;;7.20;2.35;;;;;;;-0.70;77.61;98139.00;4853946;29;20045;-73
2021/11/22 05:12:08;;;;;;;7.80;2.15;;;;;;;-0.35;77.26;98199.13;4898985;29;20088;-76
2021/11/22 05:14:34;;;;;;;7.00;2.08;;;;;;;-0.37;77.32;98228.44;4866658;29;20076;-73
2021/11/22 05:17:00;;;;;;;7.82;2.40;;;;;;;-0.43;78.09;98223.63;4866982;29;20075;-75
2021/11/22 05:19:30;;;;;;;6.65;2.28;;;;;;;-0.50;78.68;98233.03;4867096;29;20561;-74
2021/11/22 05:21:59;;;;;;;8.20;2.20;;;;;;;-0.42;76.46;98241.22;4867317;29;20112;-74
2021/11/22 05:24:28;;;;;;;6.60;2.17;;;;;;;-0.49;75.66;98235.53;4864314;29;20085;-74
2021/11/22 05:26:54;;;;;;;7.75;2.10;;;;;;;-0.50;77.15;98243.63;4863932;29;20064;-72
2021/11/22 05:29:20;;;;;;;6.68;1.77;;;;;;;-0.48;74.74;98254.97;4848925;29;20072;-74
2021/11/22 05:31:47;;;;;;;5.20;1.35;;;;;;;-0.64;72.84;98238.53;4833671;29;20063;-73
2021/11/22 05:34:13;;;;;;;5.22;1.30;;;;;;;-0.56;71.56;98249.41;4865809;29;20056;-76
2021/11/22 05:36:39;;;;;;;4.15;1.30;;;;;;;-0.44;70.36;98267.03;4867883;29;20052;-73
2021/11/22 05:39:08;;;;;;;6.00;1.63;;;;;;;-0.65;70.88;98234.19;4900001;29;20129;-72
2021/11/22 05:41:34;;;;;;;5.93;1.60;;;;;;;-0.53;70.79;98259.78;4853179;29;20052;-73
2021/11/22 05:44:00;;;;;;;6.32;1.85;;;;;;;-0.51;69.85;98273.81;4896707;29;20057;-73
2021/11/22 05:46:26;;;;;;;5.30;1.20;;;;;;;-0.54;69.36;98279.34;4850717;29;20090;-72
2021/11/22 05:48:52;;;;;;;5.43;1.40;;;;;;;-0.47;71.12;98290.34;4865219;29;20053;-74
2021/11/22 05:51:18;;;;;;;4.90;1.17;;;;;;;-0.59;70.51;98265.56;4882769;29;20060;-74
2021/11/22 05:53:49;;;;;;;6.60;1.80;;;;;;;-0.46;71.27;98297.34;4849156;29;20082;-73
2021/11/22 05:56:18;;;;;;;5.95;1.60;;;;;;;-0.37;71.57;98302.78;4864039;29;20433;-75
2021/11/22 05:58:44;;;;;;;9.73;1.70;;;;;;;-0.07;70.04;98306.75;4864415;29;20418;-74
2021/11/22 06:01:11;;;;;;;5.57;1.48;;;;;;;-0.14;69.62;98310.84;4832838;29;20500;-74
2021/11/22 06:03:37;;;;;;;5.28;1.33;;;;;;;-0.20;70.04;98319.25;4863821;29;20057;-72
2021/11/22 06:06:04;;;;;;;6.15;1.95;;;;;;;-0.44;69.83;98312.16;4882065;29;20057;-74
2021/11/22 06:08:30;;;;;;;6.40;1.60;;;;;;;-0.39;70.50;98331.28;4896639;29;20068;-75
2021/11/22 06:10:56;;;;;;;5.82;1.50;;;;;;;-0.34;70.49;98329.09;4864368;29;20052;-74
2021/11/22 06:13:22;;;;;;;6.80;2.60;;;;;;;-0.17;70.60;98337.63;4865876;29;20052;-73
2021/11/22 06:15:48;;;;;;;6.32;1.38;;;;;;;-0.06;69.95;98335.00;4864918;29;20053;-73
2021/11/22 06:18:16;;;;;;;6.38;1.80;;;;;;;0.68;69.01;98338.94;4864895;29;20190;-74
2021/11/22 06:20:42;;;;;;;6.07;1.60;;;;;;;2.87;61.97;98338.41;4867119;29;20396;-73
2021/11/22 06:23:08;;;;;;;5.43;1.40;;;;;;;2.68;60.55;98343.66;4866822;29;20084;-72
2021/11/22 06:25:34;;;;;;;5.88;1.58;;;;;;;1.82;62.92;98367.81;4849016;29;20488;-74
2021/11/22 06:28:00;;;;;;;5.97;1.45;;;;;;;1.83;62.76;98371.31;4882400;29;20566;-73
2021/11/22 06:30:26;;;;;;;4.47;1.23;;;;;;;3.20;58.27;98360.41;4880051;29;20147;-73
2021/11/22 06:32:53;;;;;;;4.95;1.40;;;;;;;4.30;55.30;98383.28;4866596;29;20495;-73
2021/11/22 06:35:20;;;;;;;5.60;1.70;;;;;;;3.84;53.79;98386.69;4850868;29;20061;-74
2021/11/22 06:37:47;;;;;;;4.68;1.00;;;;;;;2.21;58.13;98399.25;4881357;29;20135;-75
2021/11/22 06:40:13;;;;;;;4.50;1.13;;;;;;;1.52;61.19;98403.16;4880753;29;20076;-73
2021/11/22 06:42:39;;;;;;;5.53;1.25;;;;;;;0.82;62.70;98406.16;4880537;29;20057;-73
2021/11/22 06:45:07;;;;;;;7.30;1.20;;;;;;;0.29;64.01;98411.16;4899933;29;20056;-73
2021/11/22 06:47:33;;;;;;;6.78;1.10;;;;;;;0.12;63.66;98426.56;4900597;29;20060;-73
2021/11/22 06:50:00;;;;;;;5.40;1.10;;;;;;;-0.01;62.24;98404.53;4867183;29;20147;-73
2021/11/22 06:52:26;;;;;;;3.28;0.98;;;;;;;-0.05;63.04;98403.09;4898451;29;20075;-74
2021/11/22 06:54:53;;;;;;;4.05;0.73;;;;;;;0.26;62.45;98441.47;4864752;29;20064;-74
2021/11/22 06:57:19;;;;;;;4.07;1.00;;;;;;;0.63;61.92;98439.50;4899400;29;20506;-73
2021/11/22 06:59:46;;;;;;;6.97;1.27;;;;;;;0.45;61.74;98470.16;4898631;29;20116;-73
2021/11/22 07:02:16;;;;;;;5.50;1.23;;;;;;;-0.10;59.76;98463.69;4865151;29;20490;-74
2021/11/22 07:04:43;;;;;;;9.70;1.52;;;;;;;0.07;59.63;98471.22;4865116;29;20061;-73
2021/11/22 07:07:12;;;;;;;4.97;1.25;;;;;;;-0.15;58.88;98471.13;4897908;29;20074;-74
2021/11/22 07:09:39;;;;;;;6.80;1.50;;;;;;;-0.21;58.76;98476.91;4881477;29;20149;-74
2021/11/22 07:12:06;;;;;;;5.18;1.35;;;;;;;0.29;55.42;98512.97;4865839;29;20064;-74
2021/11/22 07:14:33;;;;;;;4.65;1.15;;;;;;;0.47;54.90;98490.34;4862227;29;20421;-73
2021/11/22 07:16:59;;;;;;;3.53;0.90;;;;;;;0.97;52.31;98492.75;4846189;29;20139;-74
2021/11/22 07:19:25;;;;;;;6.18;1.20;;;;;;;0.63;54.51;98521.94;4845760;29;20170;-73
2021/11/22 07:21:53;;;;;;;5.80;1.20;;;;;;;0.55;55.51;98540.28;4830823;29;20166;-74
2021/11/22 07:24:19;;;;;;;3.95;0.90;;;;;;;0.06;55.37;98535.97;4860831;29;20075;-73
2021/11/22 07:26:45;;;;;;;5.50;1.10;;;;;;;1.10;53.08;98540.53;4861979;29;20065;-74
2021/11/22 07:29:15;;;;;;;9.07;1.30;;;;;;;2.49;49.45;98555.16;4846131;29;20057;-75
2021/11/22 07:31:41;;;;;;;6.50;1.50;;;;;;;3.93;46.65;98556.94;4862569;29;20056;-73
2021/11/22 07:34:07;;;;;;;4.50;1.38;;;;;;;4.03;44.80;98546.28;4863492;29;20129;-73
2021/11/22 07:36:33;;;;;;;7.13;1.75;;;;;;;6.18;41.23;98559.16;4864372;29;20366;-73
2021/11/22 07:38:59;;;;;;;7.93;1.52;;;;;;;3.73;45.78;98550.69;4861149;29;20072;-73
2021/11/22 07:41:25;;;;;;;5.80;1.13;;;;;;;3.93;45.07;98578.31;4864536;29;20205;-73
2021/11/22 07:43:52;;;;;;;6.85;1.60;;;;;;;4.22;44.47;98573.06;4862058;29;20084;-74
2021/11/22 07:46:18;;;;;;;6.70;1.30;;;;;;;2.54;49.10;98574.25;4846044;29;20515;-74
2021/11/22 07:48:44;;;;;;;6.03;0.95;;;;;;;1.57;51.34;98587.41;4846541;29;20056;-71
2021/11/22 07:51:10;;;;;;;4.57;1.15;;;;;;;0.49;53.13;98535.44;4846146;29;20519;-73
2021/11/22 07:53:38;;;;;;;5.13;1.33;;;;;;;1.08;52.08;98601.03;4846376;29;20053;-73
2021/11/22 07:56:05;;;;;;;7.60;1.15;;;;;;;2.38;49.48;98596.03;4863749;29;20490;-74
2021/11/22 07:58:31;;;;;;;5.63;1.90;;;;;;;4.11;45.47;98616.81;4846890;29;20437;-74
2021/11/22 08:00:57;;;;;;;7.80;1.83;;;;;;;4.26;44.69;98590.53;4858639;29;20511;-74
2021/11/22 08:03:23;;;;;;;6.15;1.63;;;;;;;4.09;44.05;98588.50;4865077;29;20091;-74
2021/11/22 08:05:52;;;;;;;5.00;1.38;;;;;;;4.06;45.71;98621.72;4850018;29;20436;-74
2021/11/22 08:08:18;;;;;;;6.57;1.88;;;;;;;4.36;44.29;98622.66;4851695;29;20052;-73
2021/11/22 08:10:48;;;;;;;5.95;1.50;;;;;;;5.84;40.51;98620.59;4879821;29;20147;-74
2021/11/22 08:13:13;;;;;;;6.93;1.50;;;;;;;4.82;43.89;98645.25;4863844;29;20076;-74
2021/11/22 08:15:39;;;;;;;13.32;1.75;;;;;;;2.26;48.32;98637.84;4879415;29;20160;-73
2021/11/22 08:18:07;;;;;;;5.22;1.20;;;;;;;1.84;50.14;98636.81;4864757;29;20048;-73
2021/11/22 08:20:33;;;;;;;11.43;1.63;;;;;;;1.69;51.66;98655.69;4872264;29;20088;-74
2021/11/22 08:22:59;;;;;;;4.45;1.25;;;;;;;1.10;52.06;98637.19;4861496;29;20092;-73
2021/11/22 08:25:29;;;;;;;9.52;1.63;;;;;;;1.05;53.67;98654.47;4844981;29;20072;-73
2021/11/22 08:27:57;;;;;;;15.57;2.63;;;;;;;0.74;53.82;98646.13;4860662;29;20056;-73
2021/11/22 08:30:24;;;;;;;9.98;1.45;;;;;;;0.70;54.51;98657.97;4860503;29;20089;-73
2021/11/22 08:32:52;;;;;;;6.68;1.17;;;;;;;0.55;54.18;98661.75;4863883;29;20057;-75
2021/11/22 08:35:20;;;;;;;5.90;1.33;;;;;;;0.32;54.65;98643.00;4817483;29;20092;-73
2021/11/22 08:37:47;;;;;;;4.57;1.15;;;;;;;0.13;53.86;98651.47;4880167;29;20053;-74
2021/11/22 08:40:16;;;;;;;8.68;1.40;;;;;;;0.02;55.79;98669.16;4863757;29;20053;-74
2021/11/22 08:42:43;;;;;;;5.13;1.20;;;;;;;0.09;54.81;98665.94;4863447;29;20162;-73
2021/11/22 08:45:09;;;;;;;6.63;1.30;;;;;;;-0.27;55.34;98664.91;4880455;29;20049;-74
2021/11/22 08:47:35;;;;;;;4.43;1.20;;;;;;;-0.47;56.02;98665.47;4850910;29;20514;-73
2021/11/22 08:50:01;;;;;;;5.55;1.25;;;;;;;-0.76;56.26;98649.75;4851650;29;20060;-73
2021/11/22 08:52:28;;;;;;;7.75;1.30;;;;;;;-0.47;57.13;98668.13;4881933;29;20056;-74
2021/11/22 08:54:54;;;;;;;7.85;1.48;;;;;;;-0.23;55.01;98688.63;4866003;29;20205;-74
2021/11/22 08:57:21;;;;;;;5.60;1.30;;;;;;;-0.21;55.97;98686.72;4851000;29;20120;-73
2021/11/22 08:59:47;;;;;;;5.63;1.40;;;;;;;-0.42;57.02;98687.22;4852037;29;20513;-73
2021/11/22 09:02:14;;;;;;;4.70;1.13;;;;;;;-0.21;56.03;98678.75;4883057;29;20079;-73
2021/11/22 09:04:40;;;;;;;13.40;1.90;;;;;;;-0.56;55.84;98674.91;4866449;29;20196;-74
2021/11/22 09:07:08;;;;;;;7.32;1.52;;;;;;;-0.41;56.40;98693.38;4866665;29;20121;-73
2021/11/22 09:09:34;;;;;;;11.32;1.65;;;;;;;-0.44;56.99;98714.84;4900896;29;20084;-72
2021/11/22 09:12:00;;;;;;;5.18;1.10;;;;;;;-0.55;55.63;98707.59;4900098;29;20053;-73
2021/11/22 09:14:26;;;;;;;5.57;1.40;;;;;;;-0.64;54.92;98708.25;4852397;29;20068;-73
2021/11/22 09:18:10;;;;;;;;;;;;;;;;;;;;;
2021/11/22 09:21:19;;;;;;;4.97;1.40;;;;;;;-0.42;54.40;98707.63;4871465;29;20188;-74
2021/11/22 09:23:47;;;;;;;9.65;1.30;;;;;;;0.64;50.78;98696.50;4882322;29;20060;-73
2021/11/22 09:26:14;;;;;;;7.22;1.10;;;;;;;0.41;51.14;98729.22;4881067;29;20056;-73
2021/11/22 09:28:40;;;;;;;8.90;1.20;;;;;;;0.03;52.10;98729.28;4882124;29;20079;-73
2021/11/22 09:31:06;;;;;;;5.20;1.20;;;;;;;-0.39;52.35;98726.84;4851825;29;20052;-74
2021/11/22 09:33:33;;;;;;;4.63;1.17;;;;;;;-0.35;53.43;98725.69;4881325;29;20060;-72
2021/11/22 09:35:59;;;;;;;31.33;2.25;;;;;;;-0.36;54.30;98750.53;4882746;29;20060;-74
2021/11/22 09:38:26;;;;;;;5.75;1.35;;;;;;;-0.56;53.91;98716.53;4851284;29;20052;-73
2021/11/22 09:40:53;;;;;;;8.30;1.23;;;;;;;-0.57;54.45;98714.84;4897789;29;20514;-73
2021/11/22 09:43:19;;;;;;;10.68;2.42;;;;;;;-0.45;55.45;98745.84;4864933;29;20087;-74
2021/11/22 09:45:46;;;;;;;6.07;1.23;;;;;;;-0.42;55.10;98766.88;4851257;29;20547;-73
2021/11/22 09:48:12;;;;;;;8.63;1.63;;;;;;;-0.64;55.04;98756.00;4881660;29;20063;-73
2021/11/22 09:50:38;;;;;;;7.75;1.05;;;;;;;-0.54;54.73;98773.03;4851583;29;20089;-74
2021/11/22 09:53:05;;;;;;;7.43;1.35;;;;;;;-0.58;54.97;98775.03;4877024;29;20539;-72
2021/11/22 09:55:33;;;;;;;9.48;1.02;;;;;;;-0.59;55.20;98743.28;4862811;29;20049;-74
2021/11/22 09:58:00;;;;;;;4.18;1.00;;;;;;;-0.53;54.84;98793.31;4816720;29;20061;-74
2021/11/22 10:00:51;;;;;;;6.47;1.40;;;;;;;-0.42;54.06;98781.97;4879455;29;20064;-73
2021/11/22 10:03:20;;;;;;;16.15;3.15;;;;;;;1.51;50.52;98782.31;4877091;29;20048;-73
2021/11/22 10:05:46;;;;;;;8.48;1.48;;;;;;;3.66;44.51;98783.84;4878355;29;20085;-73
2021/11/22 10:08:17;;;;;;;3.83;1.40;;;;;;;3.92;43.74;98793.22;4862629;29;20084;-73
2021/11/22 10:10:44;;;;;;;5.88;1.58;;;;;;;4.60;40.38;98801.59;4863887;29;20064;-73
2021/11/22 10:13:23;;;;;;;5.60;1.60;;;;;;;3.83;42.32;98807.34;4839292;29;20053;-74
2021/11/22 10:15:53;;;;;;;5.50;1.13;;;;;;;2.12;45.14;98790.94;4883638;29;20092;-74
2021/11/22 10:18:26;;;;;;;3.97;1.13;;;;;;;2.21;44.80;98812.53;4869044;29;20298;-73
2021/11/22 10:20:53;;;;;;;7.15;1.42;;;;;;;3.17;43.06;98818.16;4885437;29;20100;-74
2021/11/22 10:23:28;;;;;;;30.55;2.05;;;;;;;1.88;45.51;98787.50;4851986;29;20075;-73
2021/11/22 10:25:56;;;;;;;6.18;1.50;;;;;;;1.57;45.63;98805.81;4901499;29;20101;-73
2021/11/22 10:28:25;;;;;;;7.43;1.42;;;;;;;1.53;46.46;98809.66;4883518;29;20063;-74
2021/11/22 10:30:54;;;;;;;9.48;1.60;;;;;;;1.25;47.56;98816.22;4881745;29;20060;-74
2021/11/22 10:33:32;;;;;;;9.55;2.17;;;;;;;0.44;49.81;98825.56;4898827;29;20064;-73
2021/11/22 10:36:00;;;;;;;6.00;1.65;;;;;;;0.45;51.41;98815.78;4883233;29;20155;-73
2021/11/22 10:38:29;;;;;;;7.13;1.67;;;;;;;0.18;50.58;98798.16;4882101;29;20573;-72
2021/11/22 10:41:03;;;;;;;6.30;1.50;;;;;;;0.36;50.36;98837.69;4900462;29;20048;-74
2021/11/22 10:43:35;;;;;;;6.85;1.60;;;;;;;0.23;51.20;98838.56;4906681;29;20064;-73
2021/11/22 10:46:06;;;;;;;9.70;1.90;;;;;;;0.14;51.27;98839.16;4869376;29;20060;-73
2021/11/22 10:48:32;;;;;;;14.27;2.00;;;;;;;0.02;51.00;98818.78;4886778;29;20048;-72
2021/11/22 10:51:12;;;;;;;7.07;1.73;;;;;;;2.77;44.50;98839.22;4855102;29;20404;-73
2021/11/22 10:53:43;;;;;;;4.93;1.10;;;;;;;2.41;44.63;98849.13;4884266;29;20060;-74
2021/11/22 10:56:14;;;;;;;5.63;0.95;;;;;;;1.64;46.23;98876.28;4886055;29;20083;-74
2021/11/22 10:59:02;;;;;;;11.38;1.40;;;;;;;1.42;47.39;98871.72;4887383;29;20068;-73
2021/11/22 11:01:38;;;;;;;5.03;1.63;;;;;;;0.88;48.20;98880.09;4870472;29;20472;-73
2021/11/22 11:04:06;;;;;;;6.70;1.20;;;;;;;0.76;47.72;98874.78;4839472;29;20610;-74
2021/11/22 11:06:41;;;;;;;6.50;1.20;;;;;;;0.95;47.81;98877.81;4868460;29;20128;-74
2021/11/22 11:09:10;;;;;;;11.40;1.60;;;;;;;0.54;48.58;98878.94;4854841;29;20506;-72
2021/11/22 11:11:35;;;;;;;6.13;1.23;;;;;;;0.90;48.07;98874.66;4868764;29;20057;-73
2021/11/22 11:14:10;;;;;;;6.82;1.20;;;;;;;1.75;44.60;98887.97;4865536;29;20067;-73
2021/11/22 11:16:37;;;;;;;11.52;2.03;;;;;;;1.18;46.01;98889.50;4847468;29;20064;-73
2021/11/22 11:19:06;;;;;;;17.95;1.98;;;;;;;3.02;43.39;98894.16;4863820;29;20155;-72
2021/11/22 11:21:36;;;;;;;5.78;1.40;;;;;;;4.72;39.37;98901.44;4848756;29;20113;-74
2021/11/22 11:24:03;;;;;;;5.15;1.42;;;;;;;3.67;40.04;98909.34;4848079;29;20053;-73
2021/11/22 11:26:30;;;;;;;10.60;1.23;;;;;;;3.10;41.76;98913.94;4867318;29;20079;-72
2021/11/22 11:28:57;;;;;;;12.48;1.27;;;;;;;2.33;44.17;98910.22;4850447;29;20068;-74
2021/11/22 11:31:41;;;;;;;10.23;1.50;;;;;;;1.99;45.07;98918.13;4852014;29;20045;-74
2021/11/22 11:34:10;;;;;;;8.25;1.67;;;;;;;2.71;42.99;98909.94;4835716;29;20156;-75
2021/11/22 11:36:53;;;;;;;5.85;1.90;;;;;;;2.78;43.03;98915.63;4850104;29;20053;-74
2021/11/22 11:39:44;;;;;;;6.07;2.00;;;;;;;4.48;40.26;98931.97;4867010;29;20072;-74